Time;durP1;ratioP1;P1;durP2;ratioP2;P2;SDS_P1;SDS_P2;PMS_P1;PMS_P2;Temp;Humidity;BMP_temperature;BMP_pressure;BME280_temperature;BME280_humidity;BME280_pressure;Samples;Min_cycle;Max_cycle;Signal;HPM_P1;HPM_P2
2021/12/19 00:01:45;;;;;;;29.10;11.45;;;;;;;-149.78;100.00;50721.78;5113908;28;20035;-76
2021/12/19 00:09:29;;;;;;;32.53;11.50;;;;;;;-149.78;100.00;50737.44;5114694;28;20035;-75
2021/12/19 00:11:56;;;;;;;30.67;11.35;;;;;;;-149.78;100.00;50749.19;5096507;28;20108;-74
2021/12/19 00:14:23;;;;;;;32.75;11.45;;;;;;;-149.78;100.00;50735.47;5113944;28;20034;-74
2021/12/19 00:16:50;;;;;;;30.45;11.07;;;;;;;-149.78;100.00;50713.97;5113462;28;20027;-75
2021/12/19 00:19:16;;;;;;;28.00;10.48;;;;;;;-149.78;100.00;50713.97;5113647;28;20035;-75
2021/12/19 00:21:44;;;;;;;27.38;10.35;;;;;;;-149.78;100.00;50729.63;5113564;28;20031;-74
2021/12/19 00:24:09;;;;;;;24.80;10.10;;;;;;;-149.78;100.00;50706.16;5113460;28;20047;-75
2021/12/19 00:26:35;;;;;;;25.08;9.75;;;;;;;-149.78;100.00;50741.34;5114736;28;20028;-75
2021/12/19 00:29:01;;;;;;;27.27;11.18;;;;;;;-149.78;100.00;50713.97;5113354;28;20046;-75
2021/12/19 00:31:27;;;;;;;25.88;9.15;;;;;;;-149.78;100.00;50725.69;5101909;27;20047;-74
2021/12/19 00:33:53;;;;;;;28.65;9.65;;;;;;;-149.78;100.00;50710.06;5133930;27;20027;-75
2021/12/19 00:36:19;;;;;;;28.10;9.85;;;;;;;-149.78;100.00;50710.06;5123144;27;20030;-74
2021/12/19 00:38:45;;;;;;;29.00;9.93;;;;;;;-149.78;100.00;50713.97;5114562;28;20478;-75
2021/12/19 00:41:11;;;;;;;21.65;8.13;;;;;;;-149.78;100.00;50757.00;5114600;28;20482;-75
2021/12/19 00:43:54;;;;;;;34.47;10.25;;;;;;;-149.78;100.00;50745.25;5114711;28;20027;-75
2021/12/19 00:46:22;;;;;;;26.40;10.90;;;;;;;-149.78;100.00;50721.78;5113484;28;20031;-76
2021/12/19 00:48:51;;;;;;;27.67;11.27;;;;;;;-149.78;100.00;50713.97;5113185;28;20039;-74
2021/12/19 00:51:22;;;;;;;27.98;11.07;;;;;;;-149.78;100.00;50702.22;5114379;28;20073;-75
2021/12/19 00:53:48;;;;;;;30.25;10.70;;;;;;;-149.78;100.00;50721.78;5113466;28;20028;-75
2021/12/19 00:56:15;;;;;;;32.17;12.45;;;;;;;-149.78;100.00;50706.16;5114054;28;20111;-75
2021/12/19 00:58:41;;;;;;;28.33;10.98;;;;;;;-149.78;100.00;50708.09;5114179;28;20125;-75
2021/12/19 01:01:08;;;;;;;35.25;12.45;;;;;;;-149.78;100.00;50725.69;5106456;28;20024;-75
2021/12/19 01:03:34;;;;;;;30.00;11.15;;;;;;;-149.78;100.00;50715.91;5093725;28;20062;-75
2021/12/19 01:06:00;;;;;;;28.55;11.20;;;;;;;-149.78;100.00;50670.94;5075716;28;20551;-75
2021/12/19 01:08:26;;;;;;;33.33;10.75;;;;;;;-149.78;100.00;50715.91;5092326;28;20126;-75
2021/12/19 01:10:52;;;;;;;30.90;10.02;;;;;;;-149.78;100.00;50710.06;5075567;28;20089;-75
2021/12/19 01:13:19;;;;;;;27.08;8.98;;;;;;;-149.78;100.00;50729.63;5093556;28;20136;-75
2021/12/19 01:15:46;;;;;;;27.40;9.35;;;;;;;-149.78;100.00;50727.66;5092280;28;20031;-75
2021/12/19 01:18:13;;;;;;;29.08;9.85;;;;;;;-149.78;100.00;50721.78;5093569;28;20148;-75
2021/12/19 01:20:41;;;;;;;32.83;11.32;;;;;;;-149.78;100.00;50757.00;5075652;28;20040;-75
2021/12/19 01:23:07;;;;;;;34.65;10.32;;;;;;;-149.78;100.00;50682.66;5092308;28;20073;-75
2021/12/19 01:25:33;;;;;;;35.70;10.57;;;;;;;-149.78;100.00;50729.63;5093755;28;20035;-75
2021/12/19 01:27:59;;;;;;;62.72;12.52;;;;;;;-149.78;100.00;50694.41;5092362;28;20415;-75
2021/12/19 01:30:25;;;;;;;65.70;11.07;;;;;;;-149.78;100.00;50715.91;5103234;28;20031;-75
2021/12/19 01:32:51;;;;;;;56.30;12.07;;;;;;;-149.78;100.00;50694.41;5133051;28;20112;-75
2021/12/19 01:35:23;;;;;;;81.45;12.63;;;;;;;-149.78;100.00;50698.31;5133248;28;20039;-75
2021/12/19 01:37:49;;;;;;;75.00;12.68;;;;;;;-149.78;100.00;50764.81;5133118;28;20059;-75
2021/12/19 01:40:17;;;;;;;90.72;13.18;;;;;;;-149.78;100.00;50749.19;5132937;28;20509;-75
2021/12/19 01:42:47;;;;;;;90.90;12.07;;;;;;;-149.78;100.00;50725.69;5134460;28;20037;-76
2021/12/19 01:45:22;;;;;;;51.13;10.30;;;;;;;-149.78;100.00;50710.06;5132913;28;20031;-75
2021/12/19 01:47:49;;;;;;;53.97;11.25;;;;;;;-149.78;100.00;50700.28;5134374;28;20027;-75
2021/12/19 01:50:15;;;;;;;57.05;11.90;;;;;;;-149.78;100.00;50674.84;5133180;28;20031;-75
2021/12/19 01:52:42;;;;;;;55.88;11.20;;;;;;;-149.78;100.00;50721.78;5134132;28;20685;-75
2021/12/19 01:55:08;;;;;;;43.45;10.60;;;;;;;-149.78;100.00;50721.78;5099173;28;20474;-76
2021/12/19 01:57:34;;;;;;;34.17;10.77;;;;;;;-149.78;100.00;50719.84;5134005;28;20114;-75
2021/12/19 02:00:04;;;;;;;39.08;10.77;;;;;;;-149.78;100.00;50772.66;5132799;28;20531;-75
2021/12/19 02:02:30;;;;;;;36.95;11.13;;;;;;;-149.78;100.00;50757.00;5134144;28;20035;-75
2021/12/19 02:04:56;;;;;;;30.38;8.98;;;;;;;-149.78;100.00;50737.44;5132944;28;20038;-75
2021/12/19 02:07:22;;;;;;;27.60;9.77;;;;;;;-149.78;100.00;50717.88;5132782;27;20080;-75
2021/12/19 02:09:48;;;;;;;35.72;10.48;;;;;;;-149.78;100.00;50729.63;5135949;27;20374;-75
2021/12/19 02:12:14;;;;;;;44.22;10.68;;;;;;;-149.78;100.00;50729.63;5137962;27;20031;-75
2021/12/19 02:14:39;;;;;;;30.98;10.23;;;;;;;-149.78;100.00;50717.88;5136627;27;20134;-75
2021/12/19 02:17:05;;;;;;;29.67;9.93;;;;;;;-149.78;100.00;50700.28;5136701;27;20041;-75
2021/12/19 02:19:32;;;;;;;23.52;10.00;;;;;;;-149.78;100.00;50755.03;5136522;27;20031;-75
2021/12/19 02:21:58;;;;;;;32.58;9.95;;;;;;;-149.78;100.00;50721.78;5136247;27;20477;-75
2021/12/19 02:24:24;;;;;;;25.65;10.38;;;;;;;-149.78;100.00;50743.31;5120671;27;20038;-75
2021/12/19 02:26:50;;;;;;;33.42;9.32;;;;;;;-149.78;100.00;50725.69;5116732;28;20043;-75
2021/12/19 02:29:16;;;;;;;29.35;10.48;;;;;;;-149.78;100.00;50729.63;5116174;28;20036;-75
2021/12/19 02:31:42;;;;;;;30.42;10.25;;;;;;;-149.78;100.00;50729.63;5131908;27;20096;-75
2021/12/19 02:34:17;;;;;;;32.65;10.93;;;;;;;-149.78;100.00;50702.22;5136265;27;20039;-75
2021/12/19 02:50:08;;;;;;;35.85;10.68;;;;;;;-149.78;100.00;50745.25;5095746;28;20028;-75
2021/12/19 02:52:34;;;;;;;34.88;11.63;;;;;;;-149.78;100.00;50737.44;5094660;28;20039;-75
2021/12/19 02:54:59;;;;;;;51.45;12.15;;;;;;;-149.78;100.00;50743.31;5096028;28;20383;-75
2021/12/19 02:57:25;;;;;;;72.05;12.10;;;;;;;-149.78;100.00;50753.09;5094780;28;20497;-75
2021/12/19 02:59:51;;;;;;;59.65;12.70;;;;;;;-149.78;100.00;50710.06;5094638;28;20123;-75
2021/12/19 03:02:19;;;;;;;61.53;11.68;;;;;;;-149.78;100.00;50706.16;5095910;28;20043;-75
2021/12/19 03:05:02;;;;;;;49.40;10.98;;;;;;;-149.78;100.00;50745.25;5094359;28;20041;-75
2021/12/19 03:07:29;;;;;;;66.82;11.27;;;;;;;-149.78;100.00;50710.06;5095610;28;20024;-75
2021/12/19 03:18:04;;;;;;;64.93;10.40;;;;;;;-149.78;100.00;50733.53;5079910;28;20036;-74
2021/12/19 03:20:33;;;;;;;47.85;10.88;;;;;;;-149.78;100.00;50741.34;5095484;28;20024;-75
2021/12/19 03:23:01;;;;;;;34.28;9.68;;;;;;;-149.78;100.00;50729.63;5095687;28;20028;-75
2021/12/19 03:25:32;;;;;;;39.67;10.60;;;;;;;-149.78;100.00;50731.56;5095361;28;20032;-75
2021/12/19 03:27:59;;;;;;;32.58;10.18;;;;;;;-149.78;100.00;50757.00;5095328;28;20039;-75
2021/12/19 03:30:25;;;;;;;25.92;9.43;;;;;;;-149.78;100.00;50708.09;5106276;27;20068;-75
2021/12/19 03:32:52;;;;;;;29.13;9.80;;;;;;;-149.78;100.00;50710.06;5117818;27;20043;-76
2021/12/19 03:35:18;;;;;;;29.80;10.40;;;;;;;-149.78;100.00;50713.97;5136157;27;20039;-75
2021/12/19 03:37:44;;;;;;;29.35;9.80;;;;;;;-149.78;100.00;50723.75;5136099;27;20031;-75
2021/12/19 03:40:13;;;;;;;36.47;10.30;;;;;;;-149.78;100.00;50729.63;5135859;27;20037;-75
2021/12/19 03:42:47;;;;;;;34.53;10.02;;;;;;;-149.78;100.00;50698.31;5131251;27;20027;-76
2021/12/19 03:45:16;;;;;;;40.83;9.63;;;;;;;-149.78;100.00;50737.44;5131934;27;20032;-75
2021/12/19 03:47:42;;;;;;;28.50;8.93;;;;;;;-149.78;100.00;50729.63;5119904;27;20072;-76
2021/12/19 03:50:11;;;;;;;33.10;10.15;;;;;;;-149.78;100.00;50725.69;5099744;27;20035;-75
2021/12/19 03:52:39;;;;;;;27.85;9.02;;;;;;;-149.78;100.00;50749.19;5093741;28;20036;-76
2021/12/19 03:55:06;;;;;;;28.73;9.45;;;;;;;-149.78;100.00;50690.50;5100794;28;20418;-75
2021/12/19 03:57:32;;;;;;;58.05;10.90;;;;;;;-149.78;100.00;50753.09;5114047;28;20085;-75
2021/12/19 03:59:58;;;;;;;44.30;10.18;;;;;;;-149.78;100.00;50753.09;5134560;27;20606;-76
2021/12/19 04:02:26;;;;;;;30.92;9.13;;;;;;;-149.78;100.00;50751.13;5134712;27;20462;-75
2021/12/19 04:04:57;;;;;;;33.17;10.10;;;;;;;-149.78;100.00;50760.91;5097890;28;20050;-75
2021/12/19 04:07:24;;;;;;;28.95;10.10;;;;;;;-149.78;100.00;50713.97;5076911;28;20093;-76
2021/12/19 04:09:50;;;;;;;33.38;9.75;;;;;;;-149.78;100.00;50741.34;5093392;28;20040;-75
2021/12/19 04:12:17;;;;;;;30.92;9.80;;;;;;;-149.78;100.00;50721.78;5093543;28;20036;-76
2021/12/19 04:14:43;;;;;;;39.15;10.02;;;;;;;-149.78;100.00;50729.63;5096547;27;20028;-76
2021/12/19 04:17:09;;;;;;;39.38;10.27;;;;;;;-149.78;100.00;50749.19;5134215;27;20038;-76
2021/12/19 04:19:35;;;;;;;37.60;9.85;;;;;;;-149.78;100.00;50721.78;5134308;27;20518;-76
2021/12/19 04:22:01;;;;;;;27.63;9.70;;;;;;;-149.78;100.00;50737.44;5117972;27;20114;-76
2021/12/19 04:24:27;;;;;;;45.03;10.63;;;;;;;-149.78;100.00;50710.06;5096537;28;20038;-76
2021/12/19 04:26:54;;;;;;;30.95;9.80;;;;;;;-149.78;100.00;50725.69;5113576;28;20035;-76
2021/12/19 04:29:20;;;;;;;26.48;9.40;;;;;;;-149.78;100.00;50753.09;5113476;28;20474;-76
2021/12/19 04:31:45;;;;;;;27.23;10.23;;;;;;;-149.78;100.00;50729.63;5122568;27;20045;-76
2021/12/19 04:34:14;;;;;;;43.13;9.52;;;;;;;-149.78;100.00;50721.78;5135007;27;20381;-76
2021/12/19 04:36:43;;;;;;;31.05;10.15;;;;;;;-149.78;100.00;50757.00;5135218;27;20084;-77
2021/12/19 04:55:24;;;;;;;26.33;8.93;;;;;;;-149.78;100.00;50717.88;5125377;27;20037;-76
2021/12/19 05:00:23;;;;;;;33.97;10.80;;;;;;;-149.78;100.00;50737.44;5103739;27;20032;-76
2021/12/19 05:16:03;;;;;;;19.05;7.88;;;;;;;-149.78;100.00;50725.69;5119938;27;20581;-76
2021/12/19 05:18:33;;;;;;;21.42;7.85;;;;;;;-149.78;100.00;50753.09;5134244;27;20066;-77
2021/12/19 05:21:03;;;;;;;19.45;7.97;;;;;;;-149.78;100.00;50739.41;5134570;27;20072;-76
2021/12/19 05:25:59;;;;;;;20.35;7.28;;;;;;;-149.78;100.00;50717.88;5099493;28;20561;-77
2021/12/19 05:28:24;;;;;;;21.55;7.65;;;;;;;-149.78;100.00;50725.69;5134463;28;20058;-76
2021/12/19 05:30:51;;;;;;;21.77;8.02;;;;;;;-149.78;100.00;50737.44;5134101;28;20070;-76
2021/12/19 05:33:18;;;;;;;28.70;9.50;;;;;;;-149.78;100.00;50737.44;5116248;28;20435;-76
2021/12/19 05:46:26;;;;;;;22.20;7.88;;;;;;;-149.78;100.00;50780.47;5117833;28;20092;-76
2021/12/19 05:48:53;;;;;;;16.00;7.13;;;;;;;-149.78;100.00;50753.09;5100739;27;20088;-77
2021/12/19 05:51:19;;;;;;;17.88;7.57;;;;;;;-149.78;100.00;50725.69;5102805;27;20050;-77
2021/12/19 05:53:45;;;;;;;19.55;8.13;;;;;;;-149.78;100.00;50710.06;5102654;27;20092;-76
2021/12/19 05:56:10;;;;;;;23.00;8.10;;;;;;;-149.78;100.00;50745.25;5138260;27;20027;-77
2021/12/19 05:58:36;;;;;;;20.15;7.55;;;;;;;-149.78;100.00;50710.06;5119917;27;20669;-76
2021/12/19 06:01:03;;;;;;;20.75;8.48;;;;;;;-149.78;100.00;50710.06;5119632;27;20035;-77
2021/12/19 06:03:29;;;;;;;28.58;8.95;;;;;;;-149.78;100.00;50717.88;5138125;27;20031;-76
2021/12/19 06:05:55;;;;;;;22.73;8.95;;;;;;;-149.78;100.00;50766.78;5102582;27;20107;-76
2021/12/19 06:08:21;;;;;;;18.08;7.60;;;;;;;-149.78;100.00;50764.81;5138002;27;20041;-77
2021/12/19 06:10:46;;;;;;;17.50;7.15;;;;;;;-149.78;100.00;50749.19;5119811;27;20076;-76
2021/12/19 06:13:12;;;;;;;20.85;6.65;;;;;;;-149.78;100.00;50760.91;5102586;27;20043;-76
2021/12/19 06:15:38;;;;;;;23.38;8.02;;;;;;;-149.78;100.00;50684.63;5085875;27;20091;-77
2021/12/19 06:18:04;;;;;;;21.92;8.60;;;;;;;-149.78;100.00;50706.16;5138160;27;20035;-77
2021/12/19 06:20:31;;;;;;;22.80;9.52;;;;;;;-149.78;100.00;50713.97;5102403;27;20042;-77
2021/12/19 06:22:58;;;;;;;23.70;8.73;;;;;;;-149.78;100.00;50741.34;5102639;27;20039;-76
2021/12/19 06:25:24;;;;;;;20.20;8.50;;;;;;;-149.78;100.00;50741.34;5102353;27;20038;-76
2021/12/19 06:27:49;;;;;;;23.05;8.60;;;;;;;-149.78;100.00;50768.72;5119249;27;20045;-76
2021/12/19 06:30:15;;;;;;;20.25;8.75;;;;;;;-149.78;100.00;50725.69;5119231;27;20122;-76
2021/12/19 06:32:41;;;;;;;25.60;8.65;;;;;;;-149.78;100.00;50755.03;5137267;27;20042;-76
2021/12/19 06:35:17;;;;;;;21.95;8.73;;;;;;;-149.78;100.00;50708.09;5137355;27;20458;-76
2021/12/19 06:37:43;;;;;;;20.70;8.68;;;;;;;-149.78;100.00;50713.97;5119281;27;20061;-76
2021/12/19 06:40:10;;;;;;;29.92;10.25;;;;;;;-149.78;100.00;50717.88;5137473;27;20439;-76
2021/12/19 06:42:35;;;;;;;20.10;9.88;;;;;;;-149.78;100.00;50721.78;5119057;27;20035;-76
2021/12/19 06:45:03;;;;;;;21.10;8.75;;;;;;;-149.78;100.00;50729.63;5137328;27;20042;-76
2021/12/19 06:47:31;;;;;;;21.77;8.23;;;;;;;-149.78;100.00;50737.44;5118616;27;20035;-76
2021/12/19 06:49:57;;;;;;;20.02;8.38;;;;;;;-149.78;100.00;50737.44;5136525;27;20043;-76
2021/12/19 06:52:23;;;;;;;19.25;8.30;;;;;;;-149.78;100.00;50717.88;5137137;27;20027;-76
2021/12/19 06:54:49;;;;;;;23.63;8.50;;;;;;;-149.78;100.00;50723.75;5133216;27;20027;-76
2021/12/19 06:57:15;;;;;;;25.20;9.43;;;;;;;-149.78;100.00;50727.66;5118870;27;20031;-76
2021/12/19 06:59:40;;;;;;;19.30;8.77;;;;;;;-149.78;100.00;50733.53;5118899;27;20035;-76
2021/12/19 07:02:06;;;;;;;28.17;9.82;;;;;;;-149.78;100.00;50737.44;5118563;27;20031;-76
2021/12/19 07:04:32;;;;;;;19.83;8.70;;;;;;;-149.78;100.00;50758.94;5137285;27;20042;-76
2021/12/19 07:06:58;;;;;;;28.02;9.02;;;;;;;-149.78;100.00;50737.44;5118418;27;20499;-77
2021/12/19 07:09:23;;;;;;;26.67;10.10;;;;;;;-149.78;100.00;50764.81;5118614;27;20158;-76
2021/12/19 07:11:49;;;;;;;24.08;9.07;;;;;;;-149.78;100.00;50741.34;5137195;27;20035;-77
2021/12/19 07:14:15;;;;;;;23.85;9.02;;;;;;;-149.78;100.00;50710.06;5101342;27;20043;-76
2021/12/19 07:16:41;;;;;;;22.63;9.35;;;;;;;-149.78;100.00;50741.34;5101217;27;20028;-76
2021/12/19 07:19:06;;;;;;;25.40;9.73;;;;;;;-149.78;100.00;50745.25;5118513;27;20031;-76
2021/12/19 07:21:32;;;;;;;21.95;9.27;;;;;;;-149.78;100.00;50725.69;5119199;27;20527;-76
2021/12/19 07:23:58;;;;;;;24.73;8.70;;;;;;;-149.78;100.00;50717.88;5101418;27;20416;-76
2021/12/19 07:26:24;;;;;;;23.90;9.63;;;;;;;-149.78;100.00;50764.81;5118279;27;20037;-76
2021/12/19 07:28:50;;;;;;;26.02;9.35;;;;;;;-149.78;100.00;50721.78;5136410;27;20035;-76
2021/12/19 07:31:18;;;;;;;34.90;9.90;;;;;;;-149.78;100.00;50698.31;5136348;27;20047;-77
2021/12/19 07:33:45;;;;;;;38.92;10.75;;;;;;;-149.78;100.00;50780.47;5119688;27;20031;-77
2021/12/19 07:36:12;;;;;;;40.13;11.48;;;;;;;-149.78;100.00;50745.25;5145000;27;20485;-77
2021/12/19 07:38:50;;;;;;;41.17;11.95;;;;;;;-149.78;100.00;50733.53;5122565;27;20480;-76
2021/12/19 07:41:16;;;;;;;49.65;12.15;;;;;;;-149.78;100.00;50731.56;5148693;27;20105;-76
2021/12/19 07:43:42;;;;;;;41.72;11.93;;;;;;;-149.78;100.00;50706.16;5126457;27;20038;-76
2021/12/19 07:46:08;;;;;;;43.03;12.35;;;;;;;-149.78;100.00;50710.06;5138303;27;20042;-76
2021/12/19 07:48:33;;;;;;;43.03;12.95;;;;;;;-149.78;100.00;50741.34;5121376;27;20491;-76
2021/12/19 07:50:59;;;;;;;40.40;12.55;;;;;;;-149.78;100.00;50733.53;5116792;27;20036;-79
2021/12/19 07:53:25;;;;;;;50.60;13.30;;;;;;;-149.78;100.00;50682.66;5150006;27;20083;-77
2021/12/19 07:55:50;;;;;;;64.00;12.95;;;;;;;-149.78;100.00;50733.53;5144418;27;20033;-79
2021/12/19 07:58:16;;;;;;;53.03;12.88;;;;;;;-149.78;100.00;50751.13;5099115;27;20034;-76
2021/12/19 08:00:42;;;;;;;60.17;12.77;;;;;;;-149.78;100.00;50753.09;5126378;27;20032;-78
2021/12/19 08:03:08;;;;;;;37.10;12.20;;;;;;;-149.78;100.00;50741.34;5106794;27;20172;-79
2021/12/19 08:05:34;;;;;;;41.47;11.18;;;;;;;-149.78;100.00;50753.09;5130772;27;20064;-78
2021/12/19 08:08:02;;;;;;;43.20;11.95;;;;;;;-149.78;100.00;50694.41;5113658;27;20034;-76
2021/12/19 08:12:57;;;;;;;44.30;11.80;;;;;;;-149.78;100.00;50727.66;5144746;27;20512;-78
2021/12/19 08:15:23;;;;;;;52.83;12.95;;;;;;;-149.78;100.00;50729.63;5149071;27;20059;-79
2021/12/19 08:17:49;;;;;;;46.72;11.75;;;;;;;-149.78;100.00;50741.34;5141971;27;20433;-80
2021/12/19 08:20:17;;;;;;;36.72;12.25;;;;;;;-149.78;100.00;50743.31;5121547;27;20027;-77
2021/12/19 08:22:42;;;;;;;36.15;11.77;;;;;;;-149.78;100.00;50743.31;5081151;27;20039;-77
2021/12/19 08:25:08;;;;;;;36.53;12.45;;;;;;;-149.78;100.00;50764.81;5091019;27;20038;-77
2021/12/19 08:27:34;;;;;;;40.10;12.55;;;;;;;-149.78;100.00;50745.25;5130920;27;20082;-77
2021/12/19 08:30:01;;;;;;;49.85;12.38;;;;;;;-149.78;100.00;50729.63;5099761;28;20032;-76
2021/12/19 08:32:27;;;;;;;36.78;12.18;;;;;;;-149.78;100.00;50721.78;5139769;27;20054;-78
2021/12/19 08:34:53;;;;;;;45.13;13.02;;;;;;;-149.78;100.00;50719.84;5112200;27;20031;-78
2021/12/19 08:37:19;;;;;;;52.22;12.75;;;;;;;-149.78;100.00;50729.63;5155698;27;20477;-77
2021/12/19 08:39:47;;;;;;;50.40;14.88;;;;;;;-149.78;100.00;50733.53;5122690;27;20031;-78
2021/12/19 08:42:14;;;;;;;50.53;14.40;;;;;;;-149.78;100.00;50717.88;5114251;28;20059;-77
2021/12/19 08:44:40;;;;;;;50.15;13.40;;;;;;;-149.78;100.00;50745.25;5096727;28;20032;-76
2021/12/19 08:47:06;;;;;;;52.15;14.73;;;;;;;-149.78;100.00;50776.56;5109661;27;20481;-77
2021/12/19 08:49:35;;;;;;;66.95;13.88;;;;;;;-149.78;100.00;50747.22;5133558;27;20023;-77
2021/12/19 08:52:02;;;;;;;40.90;13.65;;;;;;;-149.78;100.00;50768.72;5134469;27;20080;-76
2021/12/19 08:54:30;;;;;;;55.28;14.27;;;;;;;-149.78;100.00;50749.19;5134535;27;20513;-78
2021/12/19 08:56:56;;;;;;;66.15;13.70;;;;;;;-149.78;100.00;50741.34;5116526;27;20031;-77
2021/12/19 08:59:21;;;;;;;57.42;13.55;;;;;;;-149.78;100.00;50737.44;5130138;27;20027;-78
2021/12/19 09:01:48;;;;;;;58.00;13.68;;;;;;;-149.78;100.00;50733.53;5134610;27;20031;-77
2021/12/19 09:04:14;;;;;;;67.38;14.43;;;;;;;-149.78;100.00;50727.66;5116047;27;20027;-76
2021/12/19 09:06:40;;;;;;;52.13;13.57;;;;;;;-149.78;100.00;50717.88;5123325;27;20070;-77
2021/12/19 09:09:06;;;;;;;38.28;12.18;;;;;;;-149.78;100.00;50743.31;5114960;27;20028;-76
2021/12/19 09:11:33;;;;;;;48.60;12.48;;;;;;;-149.78;100.00;50762.88;5127355;27;20042;-76
2021/12/19 09:14:00;;;;;;;56.15;12.75;;;;;;;-149.78;100.00;50733.53;5130559;27;20033;-76
2021/12/19 09:16:26;;;;;;;42.83;12.27;;;;;;;-149.78;100.00;50698.31;5130263;27;20062;-76
2021/12/19 09:18:52;;;;;;;71.43;12.80;;;;;;;-149.78;100.00;50721.78;5123772;27;20038;-76
2021/12/19 09:21:19;;;;;;;51.53;12.32;;;;;;;-149.78;100.00;50725.69;5146827;27;20022;-75
2021/12/19 09:23:44;;;;;;;71.68;13.68;;;;;;;-149.78;100.00;50721.78;5139906;27;20029;-76
2021/12/19 09:26:11;;;;;;;52.45;14.13;;;;;;;-149.78;100.00;50735.47;5144105;27;20035;-76
2021/12/19 09:28:37;;;;;;;73.80;13.88;;;;;;;-149.78;100.00;50713.97;5126021;27;20037;-75
2021/12/19 09:31:04;;;;;;;57.22;13.68;;;;;;;-149.78;100.00;50723.75;5140087;27;20027;-75
2021/12/19 09:33:30;;;;;;;87.18;13.82;;;;;;;-149.78;100.00;50741.34;5117631;27;20180;-75
2021/12/19 09:35:57;;;;;;;47.28;13.00;;;;;;;-149.78;100.00;50725.69;5127326;27;20102;-75
2021/12/19 09:38:24;;;;;;;53.70;13.13;;;;;;;-149.78;100.00;50706.16;5127028;27;20039;-75
2021/12/19 09:40:50;;;;;;;84.88;13.50;;;;;;;-149.78;100.00;50729.63;5107339;27;20092;-75
2021/12/19 09:43:49;;;;;;;56.25;12.20;;;;;;;-149.78;100.00;50741.34;5148750;27;20043;-75
2021/12/19 09:46:12;;;;;;;;;;;;;;;-149.78;100.00;50729.63;5142879;27;20127;-74
2021/12/19 09:48:40;;;;;;;37.75;11.90;;;;;;;-149.78;100.00;50741.34;5126589;27;19919;-75
2021/12/19 09:51:08;;;;;;;40.42;11.60;;;;;;;-149.78;100.00;50745.25;5142001;27;20442;-74
2021/12/19 09:53:34;;;;;;;41.58;11.90;;;;;;;-149.78;100.00;50760.91;5123513;27;20058;-75
2021/12/19 09:56:00;;;;;;;47.95;12.55;;;;;;;-149.78;100.00;50723.75;5124683;27;20157;-75
2021/12/19 09:58:26;;;;;;;51.33;12.25;;;;;;;-149.78;100.00;50733.53;5132097;27;20058;-75
2021/12/19 10:00:53;;;;;;;63.80;13.57;;;;;;;-149.78;100.00;50725.69;5131639;27;20063;-75
2021/12/19 10:03:19;;;;;;;71.22;13.93;;;;;;;-149.78;100.00;50766.78;5110143;27;20389;-74
2021/12/19 10:05:45;;;;;;;54.00;14.23;;;;;;;-149.78;100.00;50737.44;5121532;27;20036;-74
2021/12/19 10:08:22;;;;;;;62.03;13.75;;;;;;;-149.78;100.00;50706.16;5102709;28;20065;-75
2021/12/19 10:11:00;;;;;;;79.45;14.85;;;;;;;-149.78;100.00;50725.69;5102853;27;20029;-75
2021/12/19 10:13:35;;;;;;;104.63;21.63;;;;;;;-149.78;100.00;50741.34;5127130;27;20039;-74
2021/12/19 10:16:21;;;;;;;79.35;19.73;;;;;;;-149.78;100.00;50757.00;5139939;27;20481;-75
2021/12/19 10:18:52;;;;;;;96.72;22.38;;;;;;;-149.78;100.00;50758.94;5118432;27;20039;-74
2021/12/19 10:21:20;;;;;;;56.63;14.52;;;;;;;-149.78;100.00;50729.63;5107622;27;20038;-74
2021/12/19 10:23:46;;;;;;;60.70;16.10;;;;;;;-149.78;100.00;50706.16;5143871;27;20035;-75
2021/12/19 10:26:13;;;;;;;107.30;26.25;;;;;;;-149.78;100.00;50733.53;5141430;27;20129;-75
2021/12/19 10:28:54;;;;;;;60.60;19.10;;;;;;;-149.78;100.00;50725.69;5122995;27;20027;-75
2021/12/19 10:31:20;;;;;;;128.63;28.27;;;;;;;-149.78;100.00;50729.63;5139405;27;20066;-75
2021/12/19 10:33:47;;;;;;;67.25;17.88;;;;;;;-149.78;100.00;50753.09;5121785;27;20490;-75
2021/12/19 10:36:14;;;;;;;82.68;15.85;;;;;;;-149.78;100.00;50710.06;5127562;27;20034;-74
2021/12/19 10:38:45;;;;;;;55.72;17.55;;;;;;;-149.78;100.00;50741.34;5126222;27;20054;-74
2021/12/19 10:41:20;;;;;;;62.10;16.65;;;;;;;-149.78;100.00;50743.31;5141042;27;20071;-73
2021/12/19 10:43:59;;;;;;;63.33;15.10;;;;;;;-149.78;100.00;50717.88;5133473;27;20034;-74
2021/12/19 10:46:39;;;;;;;98.20;14.23;;;;;;;-149.78;100.00;50725.69;5128488;27;20027;-74
2021/12/19 10:49:21;;;;;;;70.82;15.50;;;;;;;-149.78;100.00;50672.91;5147143;27;20125;-74
2021/12/19 10:51:49;;;;;;;62.13;15.80;;;;;;;-149.78;100.00;50725.69;5127945;27;20079;-74
2021/12/19 10:54:15;;;;;;;43.92;13.98;;;;;;;-149.78;100.00;50737.44;5125336;27;20035;-73
2021/12/19 10:56:41;;;;;;;72.63;15.73;;;;;;;-149.78;100.00;50745.25;5124555;27;20028;-74
2021/12/19 10:59:13;;;;;;;59.45;16.55;;;;;;;-149.78;100.00;50755.03;5146311;27;20038;-74
2021/12/19 11:01:41;;;;;;;34.33;11.20;;;;;;;-149.78;100.00;50712.00;5117813;27;20037;-74
2021/12/19 11:04:17;;;;;;;56.33;11.38;;;;;;;-149.78;100.00;50725.69;5121107;27;21094;-74
2021/12/19 11:06:45;;;;;;;49.40;10.38;;;;;;;-149.78;100.00;50735.47;5134973;27;20030;-74
2021/12/19 11:09:15;;;;;;;48.83;10.55;;;;;;;-149.78;100.00;50717.88;5140217;27;20027;-73
2021/12/19 11:11:43;;;;;;;60.38;12.25;;;;;;;-149.78;100.00;50725.69;5143738;27;20459;-74
2021/12/19 11:14:25;;;;;;;38.53;11.98;;;;;;;-149.78;100.00;50745.25;5132466;27;20030;-74
2021/12/19 11:16:54;;;;;;;88.57;11.88;;;;;;;-149.78;100.00;50717.88;5116527;27;20046;-74
2021/12/19 11:19:19;;;;;;;38.05;9.32;;;;;;;-149.78;100.00;50700.28;5141249;27;20054;-75
2021/12/19 11:21:45;;;;;;;42.67;10.55;;;;;;;-149.78;100.00;50682.66;5125632;27;20380;-74
2021/12/19 11:24:13;;;;;;;33.40;11.05;;;;;;;-149.78;100.00;50674.84;5139574;27;20031;-73
2021/12/19 11:26:41;;;;;;;54.95;12.43;;;;;;;-149.78;100.00;50723.75;5139574;27;20085;-73
2021/12/19 11:29:08;;;;;;;67.05;12.55;;;;;;;-149.78;100.00;50731.56;5135798;27;20027;-72
2021/12/19 11:31:35;;;;;;;87.25;14.82;;;;;;;-149.78;100.00;50725.69;5119932;27;20402;-73
2021/12/19 11:34:23;;;;;;;86.90;13.07;;;;;;;-149.78;100.00;50733.53;5120297;27;20073;-73
2021/12/19 11:37:07;;;;;;;41.55;14.07;;;;;;;-149.78;100.00;50700.28;5123083;27;20019;-74
2021/12/19 11:39:36;;;;;;;56.47;14.13;;;;;;;-149.78;100.00;50749.19;5129083;27;20051;-73
2021/12/19 11:42:06;;;;;;;66.80;14.70;;;;;;;-149.78;100.00;50712.00;5140412;27;20049;-73
2021/12/19 11:47:49;;;;;;;66.20;14.02;;;;;;;-149.78;100.00;50725.69;5085967;27;20046;-74
2021/12/19 11:50:26;;;;;;;91.78;14.07;;;;;;;-149.78;100.00;50694.41;5131875;27;20173;-68
2021/12/19 11:53:19;;;;;;;51.47;13.57;;;;;;;-149.78;100.00;50678.75;5118142;27;20020;-68
2021/12/19 11:55:47;;;;;;;54.20;13.43;;;;;;;-149.78;100.00;50708.09;5123531;27;20035;-70
2021/12/19 11:58:13;;;;;;;46.33;13.43;;;;;;;-149.78;100.00;50710.06;5135347;27;20538;-72
2021/12/19 12:00:47;;;;;;;46.97;12.27;;;;;;;-149.78;100.00;50721.78;5135520;27;20050;-72
2021/12/19 12:03:12;;;;;;;61.60;14.98;;;;;;;-149.78;100.00;50721.78;5137671;27;20070;-70
2021/12/19 12:05:45;;;;;;;60.50;13.65;;;;;;;-149.78;100.00;50706.16;5137467;27;20419;-68
2021/12/19 12:08:15;;;;;;;62.15;13.60;;;;;;;-149.78;100.00;50737.44;5124851;27;20373;-67
2021/12/19 12:13:41;;;;;;;52.58;14.07;;;;;;;-149.78;100.00;50727.66;5133738;27;20381;-67
2021/12/19 12:16:33;;;;;;;68.07;15.03;;;;;;;-149.78;100.00;50698.31;5099328;27;20027;-68
2021/12/19 12:19:02;;;;;;;57.23;14.90;;;;;;;-149.78;100.00;50743.31;5115346;27;20039;-70
2021/12/19 12:24:19;;;;;;;59.72;15.30;;;;;;;-149.78;100.00;50745.25;5113248;28;20032;-64